Time;durP1;ratioP1;P1;durP2;ratioP2;P2;SDS_P1;SDS_P2;PMS_P1;PMS_P2;Temp;Humidity;BMP_temperature;BMP_pressure;BME280_temperature;BME280_humidity;BME280_pressure;Samples;Min_cycle;Max_cycle;Signal;HPM_P1;HPM_P2
2021/07/03 00:02:04;;;;;;;25.50;15.25;;;15.40;88.20;;;;;;5094669;28;20024;-36
2021/07/03 00:04:30;;;;;;;24.08;15.70;;;15.30;88.30;;;;;;5095244;28;20023;-37
2021/07/03 00:06:55;;;;;;;22.38;15.82;;;15.40;88.30;;;;;;5095408;28;20020;-35
2021/07/03 00:09:21;;;;;;;27.77;16.10;;;15.30;88.50;;;;;;5095185;28;20090;-36
2021/07/03 00:11:47;;;;;;;25.38;16.67;;;15.30;88.60;;;;;;5095399;28;20047;-36
2021/07/03 00:14:14;;;;;;;27.50;16.80;;;15.30;88.60;;;;;;5094979;28;20425;-36
2021/07/03 00:16:40;;;;;;;23.52;16.48;;;15.30;88.50;;;;;;5095002;28;20029;-36
2021/07/03 00:19:06;;;;;;;22.10;14.85;;;15.30;88.70;;;;;;5094999;28;20020;-35
2021/07/03 00:21:32;;;;;;;17.88;13.82;;;15.30;88.40;;;;;;5094994;28;20054;-36
2021/07/03 00:23:58;;;;;;;17.70;12.18;;;15.20;88.70;;;;;;5094832;28;20032;-35
2021/07/03 00:26:24;;;;;;;20.58;13.63;;;15.10;88.60;;;;;;5095123;28;20095;-35
2021/07/03 00:28:50;;;;;;;20.25;14.43;;;14.90;89.00;;;;;;5094873;28;20541;-35
2021/07/03 00:31:15;;;;;;;17.80;12.70;;;14.80;89.30;;;;;;5095027;28;20348;-36
2021/07/03 00:33:42;;;;;;;19.52;12.93;;;14.90;89.60;;;;;;5094818;28;20044;-36
2021/07/03 00:36:08;;;;;;;15.52;12.27;;;14.90;89.20;;;;;;5094948;28;20032;-36
2021/07/03 00:38:34;;;;;;;17.67;13.43;;;14.80;89.20;;;;;;5094657;28;20031;-37
2021/07/03 00:41:00;;;;;;;19.52;13.65;;;14.80;89.40;;;;;;5094830;28;20528;-36
2021/07/03 00:43:26;;;;;;;21.02;14.65;;;14.80;89.40;;;;;;5094803;28;20111;-36
2021/07/03 00:45:52;;;;;;;18.80;15.23;;;14.80;89.60;;;;;;5094433;28;20402;-35
2021/07/03 00:48:17;;;;;;;23.67;15.85;;;14.80;89.70;;;;;;5094405;28;20024;-36
2021/07/03 00:50:43;;;;;;;21.17;14.82;;;14.80;89.70;;;;;;5094355;28;20047;-36
2021/07/03 00:53:09;;;;;;;24.63;15.82;;;14.80;89.80;;;;;;5094970;28;20020;-35
2021/07/03 00:55:36;;;;;;;25.70;15.32;;;14.80;90.00;;;;;;5076250;28;20028;-36
2021/07/03 00:58:02;;;;;;;19.67;14.85;;;14.80;89.90;;;;;;5094309;28;20047;-36
2021/07/03 01:00:28;;;;;;;19.65;14.13;;;14.80;89.90;;;;;;5094274;28;20024;-36
2021/07/03 01:02:54;;;;;;;21.98;15.48;;;14.70;89.50;;;;;;5094210;28;20039;-36
2021/07/03 01:05:19;;;;;;;22.33;14.57;;;14.80;89.40;;;;;;5094226;28;20447;-43
2021/07/03 01:07:45;;;;;;;17.92;13.48;;;14.70;89.40;;;;;;5094948;28;20047;-36
2021/07/03 01:10:20;;;;;;;18.95;13.27;;;14.70;89.50;;;;;;5094138;28;20020;-36
2021/07/03 01:12:46;;;;;;;22.38;13.52;;;14.60;89.50;;;;;;5093195;28;20028;-36
2021/07/03 01:15:12;;;;;;;20.83;14.80;;;14.60;89.60;;;;;;5094049;28;20168;-36
2021/07/03 01:17:38;;;;;;;19.35;13.93;;;14.60;89.50;;;;;;5092745;28;20036;-35
2021/07/03 01:20:05;;;;;;;17.67;13.07;;;14.50;89.50;;;;;;5094886;28;20093;-36
2021/07/03 01:22:30;;;;;;;22.15;13.65;;;14.50;89.60;;;;;;5093798;28;20020;-36
2021/07/03 01:24:56;;;;;;;23.08;15.75;;;14.50;89.70;;;;;;5094116;28;20028;-36
2021/07/03 01:27:22;;;;;;;19.05;13.20;;;14.50;89.80;;;;;;5093805;28;20108;-37
2021/07/03 01:29:48;;;;;;;19.30;12.90;;;14.40;89.30;;;;;;5093750;28;20099;-36
2021/07/03 01:32:14;;;;;;;20.17;13.55;;;14.30;89.50;;;;;;5093711;28;20510;-36
2021/07/03 01:34:39;;;;;;;24.58;17.92;;;14.20;90.10;;;;;;5093608;28;20131;-36
2021/07/03 01:37:05;;;;;;;21.35;15.52;;;14.30;89.90;;;;;;5093968;28;20024;-36
2021/07/03 01:39:31;;;;;;;19.95;13.18;;;14.30;90.00;;;;;;5093876;28;20099;-36
2021/07/03 01:41:57;;;;;;;24.15;18.40;;;14.30;90.20;;;;;;5093469;28;20028;-36
2021/07/03 01:44:25;;;;;;;22.42;15.05;;;14.30;90.20;;;;;;5075456;28;20035;-36
2021/07/03 01:46:52;;;;;;;25.17;15.85;;;14.30;90.20;;;;;;5093608;28;20048;-36
2021/07/03 01:49:18;;;;;;;24.65;14.82;;;14.30;90.20;;;;;;5093747;28;20028;-36
2021/07/03 01:51:44;;;;;;;24.42;14.73;;;14.40;90.10;;;;;;5093551;28;20406;-36
2021/07/03 01:54:10;;;;;;;20.52;14.55;;;14.40;89.80;;;;;;5075785;28;20027;-36
2021/07/03 01:56:39;;;;;;;18.65;14.32;;;14.40;89.70;;;;;;5093231;28;20024;-36
2021/07/03 01:59:05;;;;;;;19.15;14.15;;;14.30;89.90;;;;;;5092962;28;20103;-36
2021/07/03 02:01:31;;;;;;;24.60;14.70;;;14.30;89.80;;;;;;5093223;28;20112;-36
2021/07/03 02:03:57;;;;;;;22.40;15.35;;;14.20;90.00;;;;;;5091943;28;20056;-36
2021/07/03 02:06:22;;;;;;;23.23;16.00;;;14.20;90.00;;;;;;5093345;28;20035;-36
2021/07/03 02:08:48;;;;;;;23.15;15.40;;;14.20;90.10;;;;;;5093627;28;20051;-36
2021/07/03 02:11:14;;;;;;;24.80;15.85;;;14.20;90.40;;;;;;5093559;28;20028;-36
2021/07/03 02:13:39;;;;;;;23.95;15.82;;;14.20;90.40;;;;;;5093267;28;20024;-37
2021/07/03 02:16:05;;;;;;;23.50;16.17;;;14.20;90.60;;;;;;5093272;28;20028;-36
2021/07/03 02:18:30;;;;;;;22.85;16.13;;;14.10;90.60;;;;;;5075141;28;20077;-36
2021/07/03 02:20:56;;;;;;;26.83;18.15;;;14.10;90.50;;;;;;5093227;28;20071;-36
2021/07/03 02:23:22;;;;;;;24.67;17.70;;;14.10;90.30;;;;;;5093340;28;20111;-45
2021/07/03 02:25:47;;;;;;;25.05;15.02;;;14.10;90.30;;;;;;5097243;28;20024;-36
2021/07/03 02:28:14;;;;;;;21.45;16.05;;;14.10;90.20;;;;;;5079055;28;20020;-36
2021/07/03 02:30:40;;;;;;;32.30;17.02;;;14.10;90.30;;;;;;5097463;28;20063;-36
2021/07/03 02:33:06;;;;;;;24.95;15.38;;;14.10;90.40;;;;;;5097155;28;20533;-36
2021/07/03 02:35:31;;;;;;;21.98;15.85;;;14.00;90.40;;;;;;5096985;28;20052;-36
2021/07/03 02:37:58;;;;;;;23.48;16.38;;;14.00;90.40;;;;;;5097023;28;20032;-36
2021/07/03 02:40:24;;;;;;;24.25;16.83;;;14.10;90.30;;;;;;5097253;28;20032;-36
2021/07/03 02:42:50;;;;;;;26.27;16.13;;;14.10;90.10;;;;;;5096848;28;20468;-36
2021/07/03 02:45:18;;;;;;;23.50;15.52;;;14.00;90.10;;;;;;5097090;28;20016;-36
2021/07/03 02:47:44;;;;;;;24.02;16.42;;;13.90;90.30;;;;;;5097091;28;20024;-37
2021/07/03 02:50:17;;;;;;;22.98;15.35;;;13.90;90.40;;;;;;5097028;28;20023;-37
2021/07/03 02:52:43;;;;;;;18.63;13.60;;;13.80;90.50;;;;;;5096791;28;20032;-36
2021/07/03 02:55:09;;;;;;;19.75;12.73;;;13.80;90.40;;;;;;5096714;28;20024;-36
2021/07/03 02:57:35;;;;;;;18.75;13.68;;;13.80;90.10;;;;;;5097050;28;20379;-36
2021/07/03 03:00:01;;;;;;;16.60;13.02;;;13.70;90.60;;;;;;5096584;28;20028;-36
2021/07/03 03:02:26;;;;;;;22.92;14.40;;;13.70;90.70;;;;;;5096412;28;20055;-36
2021/07/03 03:04:52;;;;;;;19.73;12.38;;;13.60;90.70;;;;;;5096473;28;20422;-36
2021/07/03 03:07:18;;;;;;;17.20;13.18;;;13.60;90.90;;;;;;5096447;28;20420;-36
2021/07/03 03:09:43;;;;;;;16.58;12.93;;;13.70;90.90;;;;;;5096369;28;20020;-36
2021/07/03 03:12:09;;;;;;;17.38;13.38;;;13.60;90.80;;;;;;5096388;28;20016;-36
2021/07/03 03:14:35;;;;;;;18.17;12.10;;;13.70;90.70;;;;;;5096343;28;20032;-36
2021/07/03 03:17:00;;;;;;;16.92;13.48;;;13.60;90.50;;;;;;5096527;28;20077;-36
2021/07/03 03:19:26;;;;;;;20.10;14.00;;;13.60;90.70;;;;;;5096193;28;20027;-36
2021/07/03 03:21:51;;;;;;;17.27;12.00;;;13.70;90.60;;;;;;5096170;28;20032;-36
2021/07/03 03:24:19;;;;;;;17.80;12.95;;;13.80;90.50;;;;;;5094834;28;20549;-36
2021/07/03 03:26:44;;;;;;;17.02;12.30;;;13.70;90.10;;;;;;5096053;28;20047;-36
2021/07/03 03:29:10;;;;;;;17.05;11.57;;;13.60;90.10;;;;;;5096273;28;20024;-36
2021/07/03 03:31:36;;;;;;;16.02;11.50;;;13.60;90.00;;;;;;5077826;28;20024;-36
2021/07/03 03:34:02;;;;;;;15.40;11.60;;;13.60;90.20;;;;;;5095785;28;20119;-36
2021/07/03 03:36:27;;;;;;;24.95;13.60;;;13.60;90.20;;;;;;5095167;28;20103;-37
2021/07/03 03:38:54;;;;;;;18.13;13.07;;;13.70;90.30;;;;;;5096092;28;20048;-36
2021/07/03 03:41:20;;;;;;;20.25;13.57;;;13.70;90.20;;;;;;5095823;28;20049;-36
2021/07/03 03:43:46;;;;;;;22.98;14.00;;;13.80;90.10;;;;;;5095591;28;20028;-36
2021/07/03 03:46:12;;;;;;;19.17;13.73;;;13.80;89.90;;;;;;5077991;28;20027;-36
2021/07/03 03:48:38;;;;;;;19.83;14.15;;;13.80;90.00;;;;;;5095959;28;20439;-36
2021/07/03 03:51:04;;;;;;;17.85;14.32;;;13.70;90.00;;;;;;5077819;28;20059;-36
2021/07/03 03:53:29;;;;;;;29.85;16.15;;;13.80;89.70;;;;;;5095558;28;20136;-36
2021/07/03 03:55:55;;;;;;;25.17;17.50;;;13.80;89.90;;;;;;5095747;28;20024;-36
2021/07/03 03:58:21;;;;;;;26.60;17.98;;;13.80;89.80;;;;;;5095394;28;20031;-36
2021/07/03 04:00:46;;;;;;;22.33;16.65;;;13.80;90.00;;;;;;5095336;28;20024;-37
2021/07/03 04:03:12;;;;;;;26.02;16.60;;;13.80;90.20;;;;;;5095865;28;20228;-36
2021/07/03 04:05:37;;;;;;;24.90;17.48;;;13.80;90.30;;;;;;5095356;28;20020;-36
2021/07/03 04:08:04;;;;;;;26.33;18.48;;;13.80;89.90;;;;;;5095603;28;20026;-36
2021/07/03 04:10:29;;;;;;;26.23;18.52;;;13.80;90.00;;;;;;5095535;28;20024;-36
2021/07/03 04:12:55;;;;;;;25.65;17.42;;;13.80;90.20;;;;;;5095451;28;20098;-36
2021/07/03 04:15:21;;;;;;;26.23;18.63;;;13.90;90.20;;;;;;5095435;28;20028;-36
2021/07/03 04:17:47;;;;;;;25.02;18.35;;;14.10;89.80;;;;;;5076927;28;20495;-45
2021/07/03 04:20:13;;;;;;;25.38;18.10;;;14.10;89.80;;;;;;5094962;28;20035;-36
2021/07/03 04:22:38;;;;;;;28.13;17.75;;;14.20;89.80;;;;;;5094938;28;20028;-36
2021/07/03 04:25:08;;;;;;;31.75;20.45;;;14.30;89.50;;;;;;5095097;28;20414;-36
2021/07/03 04:27:35;;;;;;;28.87;18.07;;;14.50;89.20;;;;;;5095438;28;20024;-36
2021/07/03 04:30:02;;;;;;;28.88;18.77;;;14.50;88.90;;;;;;5094588;28;20016;-36
2021/07/03 04:32:27;;;;;;;31.52;20.95;;;14.60;89.10;;;;;;5094716;28;20174;-36
2021/07/03 04:34:53;;;;;;;34.72;20.13;;;14.70;89.00;;;;;;5094762;28;20468;-36
2021/07/03 04:37:19;;;;;;;32.30;19.00;;;14.70;88.90;;;;;;5094569;28;20107;-38
2021/07/03 04:39:44;;;;;;;33.13;20.17;;;14.70;88.80;;;;;;5094497;28;20035;-37
2021/07/03 04:42:10;;;;;;;29.58;20.30;;;14.70;89.10;;;;;;5094557;28;20020;-37
2021/07/03 04:44:35;;;;;;;32.50;20.67;;;14.70;89.20;;;;;;5094618;28;20020;-37
2021/07/03 04:47:01;;;;;;;30.75;20.65;;;14.80;89.20;;;;;;5076107;28;20035;-37
2021/07/03 04:49:31;;;;;;;31.67;21.45;;;14.90;88.80;;;;;;5094526;28;20020;-35
2021/07/03 04:51:57;;;;;;;31.52;22.63;;;15.00;88.20;;;;;;5094233;28;20020;-36
2021/07/03 04:54:23;;;;;;;29.00;21.45;;;15.00;88.40;;;;;;5094431;28;20072;-36
2021/07/03 04:56:49;;;;;;;34.63;21.60;;;15.10;88.10;;;;;;5094215;28;20099;-36
2021/07/03 04:59:14;;;;;;;29.77;20.23;;;15.10;88.20;;;;;;5094202;28;20028;-35
2021/07/03 05:01:40;;;;;;;28.73;20.23;;;15.10;88.30;;;;;;5094091;28;20030;-36
2021/07/03 05:04:05;;;;;;;37.55;21.25;;;15.20;88.10;;;;;;5094175;28;20027;-38
2021/07/03 05:06:31;;;;;;;28.98;20.95;;;15.30;88.00;;;;;;5093897;28;20488;-37
2021/07/03 05:08:57;;;;;;;32.88;22.88;;;15.30;88.10;;;;;;5094670;28;20028;-37
2021/07/03 05:11:22;;;;;;;30.48;21.58;;;15.50;87.50;;;;;;5093878;28;20035;-36
2021/07/03 05:13:48;;;;;;;32.63;22.60;;;15.50;87.50;;;;;;5094038;28;20031;-37
2021/07/03 05:16:14;;;;;;;35.03;23.23;;;15.60;87.30;;;;;;5075639;28;20035;-36
2021/07/03 05:18:39;;;;;;;32.78;22.83;;;15.60;87.40;;;;;;5093752;28;20127;-36
2021/07/03 05:21:05;;;;;;;36.65;21.48;;;15.70;86.90;;;;;;5093660;28;20058;-37
2021/07/03 05:23:31;;;;;;;37.75;20.33;;;15.60;87.10;;;;;;5093824;28;20024;-37
2021/07/03 05:25:57;;;;;;;30.80;20.20;;;15.60;87.20;;;;;;5093814;28;20450;-37
2021/07/03 05:28:24;;;;;;;31.55;20.40;;;15.80;87.00;;;;;;5093793;28;20028;-36
2021/07/03 05:30:50;;;;;;;27.52;20.35;;;15.80;86.60;;;;;;5094306;28;20091;-36
2021/07/03 05:33:15;;;;;;;32.95;20.50;;;15.80;86.50;;;;;;5093766;28;20111;-35
2021/07/03 05:35:41;;;;;;;28.67;20.83;;;16.00;86.00;;;;;;5093288;28;20040;-37
2021/07/03 05:38:07;;;;;;;29.85;20.80;;;16.30;84.90;;;;;;5093635;28;20448;-36
2021/07/03 05:40:33;;;;;;;33.45;21.65;;;16.30;84.80;;;;;;5075058;28;20028;-36
2021/07/03 05:42:58;;;;;;;30.60;20.30;;;16.50;84.20;;;;;;5093449;28;20032;-36
2021/07/03 05:45:24;;;;;;;29.73;21.73;;;16.50;83.70;;;;;;5093236;28;20038;-36
2021/07/03 05:47:51;;;;;;;28.02;20.33;;;16.40;83.70;;;;;;5093588;28;20016;-37
2021/07/03 05:50:19;;;;;;;36.95;20.67;;;16.50;84.50;;;;;;5093176;28;20023;-37
2021/07/03 05:52:45;;;;;;;30.52;19.98;;;16.60;83.30;;;;;;5093464;28;20073;-36
2021/07/03 05:55:11;;;;;;;27.67;19.23;;;16.60;83.00;;;;;;5093632;28;20462;-36
2021/07/03 05:57:37;;;;;;;32.92;19.77;;;16.70;83.20;;;;;;5093342;28;20042;-36
2021/07/03 06:00:07;;;;;;;27.98;19.40;;;16.80;83.30;;;;;;5092393;28;20028;-36
2021/07/03 06:02:33;;;;;;;27.65;18.98;;;16.90;82.60;;;;;;5074830;28;20456;-36
2021/07/03 06:04:59;;;;;;;23.80;18.67;;;17.10;81.50;;;;;;5093072;28;20020;-36
2021/07/03 06:07:26;;;;;;;29.63;19.67;;;16.90;82.40;;;;;;5093005;28;20016;-36
2021/07/03 06:09:54;;;;;;;37.75;19.50;;;17.10;82.40;;;;;;5093804;28;20048;-36
2021/07/03 06:12:20;;;;;;;31.52;21.35;;;17.10;82.30;;;;;;5093059;28;20416;-36
2021/07/03 06:14:46;;;;;;;31.33;20.85;;;17.20;81.80;;;;;;5093101;28;20051;-36
2021/07/03 06:17:14;;;;;;;28.10;20.63;;;17.30;81.30;;;;;;5093033;28;20142;-36
2021/07/03 06:19:44;;;;;;;27.73;19.95;;;17.30;81.10;;;;;;5074647;28;20024;-36
2021/07/03 06:22:14;;;;;;;33.17;21.47;;;17.60;80.40;;;;;;5092820;28;20463;-37
2021/07/03 06:24:41;;;;;;;34.03;19.60;;;17.90;79.10;;;;;;5093176;28;20059;-36
2021/07/03 06:27:07;;;;;;;28.92;20.17;;;18.00;79.00;;;;;;5092890;28;20021;-36
2021/07/03 06:29:34;;;;;;;33.10;20.20;;;18.10;78.10;;;;;;5074762;28;20421;-36
2021/07/03 06:32:00;;;;;;;32.20;21.23;;;18.00;78.40;;;;;;5092944;28;20016;-37
2021/07/03 06:34:26;;;;;;;29.65;18.17;;;17.80;79.10;;;;;;5074723;28;20052;-36
2021/07/03 06:36:51;;;;;;;27.45;20.02;;;17.80;79.80;;;;;;5092715;28;20024;-36
2021/07/03 06:39:17;;;;;;;29.30;19.65;;;17.80;80.30;;;;;;5092985;28;20510;-36
2021/07/03 06:41:43;;;;;;;24.77;18.52;;;18.00;79.90;;;;;;5074691;28;20410;-36
2021/07/03 06:44:09;;;;;;;29.70;19.40;;;18.20;78.80;;;;;;5092736;28;20028;-36
2021/07/03 06:46:34;;;;;;;25.65;19.25;;;18.40;78.20;;;;;;5074700;28;20502;-36
2021/07/03 06:49:00;;;;;;;27.23;18.90;;;18.70;77.40;;;;;;5093054;28;20020;-37
2021/07/03 06:51:25;;;;;;;24.95;17.75;;;19.10;76.20;;;;;;5092507;28;20116;-37
2021/07/03 06:53:53;;;;;;;25.83;17.30;;;19.10;75.30;;;;;;5093063;28;20032;-37
2021/07/03 06:56:19;;;;;;;22.75;17.58;;;19.10;75.70;;;;;;5092805;28;20028;-37
2021/07/03 06:58:45;;;;;;;28.88;18.60;;;19.50;73.80;;;;;;5093199;28;20515;-37
2021/07/03 07:01:10;;;;;;;21.13;16.52;;;19.40;73.80;;;;;;5092854;28;20529;-37
2021/07/03 07:03:36;;;;;;;28.90;17.15;;;19.50;73.00;;;;;;5092590;28;20031;-42
2021/07/03 07:06:02;;;;;;;23.15;16.95;;;19.60;71.80;;;;;;5092458;28;20024;-37
2021/07/03 07:08:27;;;;;;;28.13;17.90;;;19.80;70.70;;;;;;5092719;28;20107;-37
2021/07/03 07:10:53;;;;;;;29.85;21.13;;;20.00;69.90;;;;;;5093427;28;20023;-36
2021/07/03 07:13:19;;;;;;;24.15;16.58;;;20.20;69.60;;;;;;5078074;28;20054;-37
2021/07/03 07:15:44;;;;;;;25.42;18.92;;;20.40;68.60;;;;;;5097275;28;20032;-36
2021/07/03 07:18:10;;;;;;;30.67;18.80;;;20.80;68.20;;;;;;5096258;28;20027;-37
2021/07/03 07:20:36;;;;;;;25.85;17.48;;;21.00;67.20;;;;;;5096607;28;20114;-36
2021/07/03 07:23:01;;;;;;;59.40;22.60;;;20.80;67.30;;;;;;5096189;28;20032;-36
2021/07/03 07:25:27;;;;;;;25.90;18.05;;;20.50;67.60;;;;;;5096198;28;20020;-37
2021/07/03 07:27:53;;;;;;;23.35;17.05;;;20.70;66.40;;;;;;5096336;28;20030;-36
2021/07/03 07:30:19;;;;;;;28.65;18.30;;;20.70;66.50;;;;;;5095952;28;20498;-36
2021/07/03 07:32:46;;;;;;;23.85;15.70;;;21.20;65.30;;;;;;5095615;28;20425;-37
2021/07/03 07:35:15;;;;;;;22.00;14.85;;;21.20;65.10;;;;;;5095756;28;20101;-37
2021/07/03 07:37:42;;;;;;;24.35;17.00;;;21.30;63.80;;;;;;5095918;28;20031;-37
2021/07/03 07:40:08;;;;;;;24.75;15.93;;;21.30;64.20;;;;;;5095726;28;20021;-37
2021/07/03 07:42:35;;;;;;;21.48;15.10;;;22.00;61.40;;;;;;5095613;28;20028;-37
2021/07/03 07:45:00;;;;;;;27.15;15.68;;;22.50;60.20;;;;;;5077663;28;20020;-37
2021/07/03 07:47:26;;;;;;;20.70;15.50;;;22.70;58.70;;;;;;5095624;28;20042;-36
2021/07/03 07:49:52;;;;;;;20.02;14.57;;;23.00;58.40;;;;;;5095349;28;20024;-36
2021/07/03 07:52:17;;;;;;;26.25;15.38;;;22.80;59.40;;;;;;5095731;28;20356;-36
2021/07/03 07:54:43;;;;;;;21.10;14.20;;;23.20;58.10;;;;;;5095241;28;20468;-38
2021/07/03 07:57:08;;;;;;;25.20;15.23;;;23.40;56.10;;;;;;5095421;28;20016;-37
2021/07/03 07:59:34;;;;;;;18.27;14.20;;;23.50;56.50;;;;;;5094301;28;20506;-37
2021/07/03 08:02:00;;;;;;;23.70;15.00;;;24.10;55.60;;;;;;5078618;28;20020;-37
2021/07/03 08:04:25;;;;;;;22.33;14.93;;;24.40;53.70;;;;;;5095159;28;20028;-38
2021/07/03 08:06:51;;;;;;;20.38;14.65;;;24.30;53.30;;;;;;5095202;28;20026;-35
2021/07/03 08:09:17;;;;;;;19.10;14.10;;;23.20;56.10;;;;;;5095689;28;20422;-37
2021/07/03 08:11:43;;;;;;;21.92;14.32;;;23.60;55.30;;;;;;5094494;28;20051;-37
2021/07/03 08:14:08;;;;;;;21.40;15.35;;;23.80;53.90;;;;;;5093220;28;20039;-37
2021/07/03 08:16:37;;;;;;;19.95;15.95;;;24.20;53.20;;;;;;5077181;28;20028;-37
2021/07/03 08:19:03;;;;;;;17.77;13.27;;;24.80;51.80;;;;;;5094765;28;20038;-38
2021/07/03 08:21:29;;;;;;;20.15;13.45;;;24.50;51.60;;;;;;5093866;28;20028;-36
2021/07/03 08:23:55;;;;;;;16.45;13.43;;;24.40;52.70;;;;;;5094516;28;20490;-36
2021/07/03 08:26:20;;;;;;;17.30;13.73;;;24.60;52.50;;;;;;5094714;28;20024;-37
2021/07/03 08:28:46;;;;;;;17.58;13.18;;;25.10;50.80;;;;;;5094525;28;20345;-37
2021/07/03 08:31:11;;;;;;;20.33;14.27;;;25.40;50.40;;;;;;5094264;28;20468;-37
2021/07/03 08:33:37;;;;;;;20.02;14.25;;;25.00;51.10;;;;;;5094072;28;20556;-36
2021/07/03 08:36:03;;;;;;;19.13;13.65;;;25.10;50.90;;;;;;5094437;28;20380;-36
2021/07/03 08:38:29;;;;;;;16.58;13.18;;;24.90;51.70;;;;;;5094037;28;20020;-37
2021/07/03 08:40:55;;;;;;;21.77;13.60;;;25.40;51.00;;;;;;5093914;28;20024;-37
2021/07/03 08:43:21;;;;;;;17.58;12.00;;;25.40;50.90;;;;;;5093801;28;20060;-37
2021/07/03 08:45:48;;;;;;;19.02;13.77;;;26.00;48.50;;;;;;5059417;28;20122;-37
2021/07/03 08:48:19;;;;;;;19.17;13.73;;;26.20;47.50;;;;;;5094109;28;20450;-36
2021/07/03 08:50:44;;;;;;;17.70;12.52;;;26.70;46.90;;;;;;5093494;28;20383;-39
2021/07/03 08:53:10;;;;;;;17.38;14.40;;;26.60;46.50;;;;;;5093751;28;20024;-37
2021/07/03 08:55:36;;;;;;;16.13;12.93;;;26.80;46.40;;;;;;5094110;28;20103;-37
2021/07/03 08:58:04;;;;;;;18.67;12.63;;;26.20;47.70;;;;;;5093937;28;20028;-37
2021/07/03 09:00:40;;;;;;;16.58;13.40;;;26.40;46.80;;;;;;5093827;28;20387;-37
2021/07/03 09:03:16;;;;;;;19.50;13.35;;;27.00;45.10;;;;;;5093427;28;20086;-36
2021/07/03 09:05:52;;;;;;;15.40;11.60;;;26.30;47.10;;;;;;5093941;28;20048;-37
2021/07/03 09:08:19;;;;;;;15.80;10.55;;;26.90;44.20;;;;;;5094352;28;20024;-37
2021/07/03 09:10:45;;;;;;;13.38;9.75;;;26.20;45.40;;;;;;5094070;28;20116;-37
2021/07/03 09:13:11;;;;;;;20.60;10.82;;;25.60;45.90;;;;;;5094259;28;20416;-37
2021/07/03 09:15:44;;;;;;;17.63;12.25;;;25.10;47.70;;;;;;5094235;28;20421;-37
2021/07/03 09:18:16;;;;;;;15.35;11.88;;;24.10;50.90;;;;;;5093555;28;20113;-37
2021/07/03 09:20:51;;;;;;;12.25;9.88;;;23.70;51.70;;;;;;5093645;28;20490;-37
2021/07/03 09:23:20;;;;;;;14.82;10.40;;;23.90;51.50;;;;;;5093318;28;20028;-37
2021/07/03 09:25:48;;;;;;;17.30;10.15;;;24.20;50.00;;;;;;5093431;28;20074;-36
2021/07/03 09:28:16;;;;;;;12.85;10.55;;;24.50;50.30;;;;;;5093303;28;20031;-37
2021/07/03 09:30:47;;;;;;;15.73;10.07;;;25.50;47.50;;;;;;5075177;28;20043;-37
2021/07/03 09:33:34;;;;;;;16.58;9.45;;;26.70;45.40;;;;;;5074962;28;20360;-36
2021/07/03 09:36:03;;;;;;;17.20;11.13;;;27.50;43.40;;;;;;5094737;28;20047;-37
2021/07/03 09:38:32;;;;;;;14.20;10.32;;;27.20;43.60;;;;;;5076923;28;20077;-37
2021/07/03 09:41:11;;;;;;;16.30;10.90;;;27.80;42.20;;;;;;5060161;28;20024;-44
2021/07/03 09:43:50;;;;;;;11.65;9.25;;;28.50;39.90;;;;;;5092391;28;20028;-39
2021/07/03 09:46:32;;;;;;;12.53;8.73;;;28.20;40.50;;;;;;5092594;28;20024;-38
2021/07/03 09:49:02;;;;;;;11.50;9.23;;;28.20;40.80;;;;;;5094301;28;20040;-37
2021/07/03 09:51:30;;;;;;;13.45;10.38;;;27.40;40.70;;;;;;5092925;28;20026;-38
2021/07/03 09:53:57;;;;;;;11.13;9.45;;;27.50;40.80;;;;;;5075247;28;20162;-38
2021/07/03 09:56:23;;;;;;;13.65;9.35;;;27.20;40.90;;;;;;5074689;28;20050;-38
2021/07/03 09:58:48;;;;;;;12.48;9.68;;;26.30;43.40;;;;;;5075226;28;20024;-37
2021/07/03 10:01:14;;;;;;;16.08;9.85;;;28.00;40.50;;;;;;5075097;28;20031;-38
2021/07/03 10:03:40;;;;;;;14.45;9.15;;;28.80;38.50;;;;;;5093219;28;20020;-36
2021/07/03 10:06:09;;;;;;;13.75;9.13;;;28.80;37.70;;;;;;5074996;28;20468;-37
2021/07/03 10:08:44;;;;;;;14.15;8.63;;;28.70;37.40;;;;;;5093526;28;20093;-37
2021/07/03 10:11:12;;;;;;;14.95;8.90;;;28.00;39.60;;;;;;5093379;28;20046;-37
2021/07/03 10:13:40;;;;;;;12.63;8.38;;;27.40;40.40;;;;;;5093199;28;20114;-37
2021/07/03 10:16:08;;;;;;;13.20;9.45;;;27.60;40.10;;;;;;5092800;28;20028;-39
2021/07/03 10:18:35;;;;;;;11.20;7.40;;;27.20;41.10;;;;;;5075140;28;20085;-37
2021/07/03 10:21:27;;;;;;;9.30;7.93;;;27.40;40.40;;;;;;5092712;28;20028;-37
2021/07/03 10:23:52;;;;;;;16.20;7.57;;;27.70;40.30;;;;;;5070262;28;20129;-37
2021/07/03 10:26:18;;;;;;;9.38;8.35;;;28.70;38.10;;;;;;5093212;28;20020;-37
2021/07/03 10:28:51;;;;;;;14.48;9.07;;;28.30;38.70;;;;;;5092799;28;20017;-37
2021/07/03 10:31:17;;;;;;;14.20;9.43;;;26.70;41.60;;;;;;5092918;28;20471;-37
2021/07/03 10:33:48;;;;;;;9.15;7.75;;;27.40;40.10;;;;;;5092676;28;20069;-37
2021/07/03 10:36:25;;;;;;;8.70;7.22;;;27.10;40.00;;;;;;5092947;28;20028;-37
2021/07/03 10:38:52;;;;;;;7.40;6.60;;;28.30;37.50;;;;;;5093512;28;20107;-37
2021/07/03 10:41:23;;;;;;;10.40;7.00;;;28.00;38.10;;;;;;5092674;28;20099;-37
2021/07/03 10:43:51;;;;;;;9.02;6.88;;;28.90;36.40;;;;;;5092367;28;20040;-37
2021/07/03 10:46:34;;;;;;;9.75;7.18;;;28.90;35.50;;;;;;5095938;28;20465;-36
2021/07/03 10:49:15;;;;;;;8.85;7.15;;;27.70;38.80;;;;;;5097921;28;20035;-37
2021/07/03 10:51:46;;;;;;;8.93;7.60;;;26.70;40.60;;;;;;5096875;28;20020;-53
2021/07/03 10:54:24;;;;;;;9.23;7.28;;;26.90;40.00;;;;;;5097051;28;20028;-48
2021/07/03 10:57:14;;;;;;;12.15;8.60;;;27.00;40.80;;;;;;5096165;28;20039;-49
2021/07/03 10:59:41;;;;;;;11.48;7.78;;;27.50;38.70;;;;;;5095863;28;20084;-51
2021/07/03 11:02:11;;;;;;;7.55;6.75;;;28.30;37.50;;;;;;5096219;28;20077;-50
2021/07/03 11:04:54;;;;;;;10.70;7.50;;;29.00;36.20;;;;;;5096097;28;20406;-50
2021/07/03 11:07:24;;;;;;;8.75;7.10;;;28.80;36.30;;;;;;5096195;28;20107;-50
2021/07/03 11:09:51;;;;;;;9.95;6.82;;;28.70;36.70;;;;;;5096240;28;20028;-53
2021/07/03 11:12:23;;;;;;;6.68;5.80;;;28.50;37.00;;;;;;5061692;28;20020;-52
2021/07/03 11:14:55;;;;;;;12.88;7.00;;;29.10;35.90;;;;;;5044777;28;20092;-49
2021/07/03 11:17:26;;;;;;;11.63;6.32;;;28.40;37.50;;;;;;5077732;28;20081;-50
2021/07/03 11:19:55;;;;;;;11.15;6.28;;;28.70;36.10;;;;;;5095568;28;20092;-48
2021/07/03 11:22:23;;;;;;;9.88;6.68;;;29.50;35.50;;;;;;5095773;28;20492;-51
2021/07/03 11:24:57;;;;;;;7.07;6.28;;;30.20;33.80;;;;;;5061329;28;20016;-51
2021/07/03 11:27:31;;;;;;;8.95;6.45;;;29.20;35.70;;;;;;5095967;28;20090;-51
2021/07/03 11:30:16;;;;;;;7.88;6.72;;;29.70;35.10;;;;;;5095373;28;20408;-48
2021/07/03 11:32:54;;;;;;;8.00;6.57;;;30.30;33.50;;;;;;5096227;28;20039;-52
2021/07/03 11:35:20;;;;;;;14.45;7.05;;;29.90;33.80;;;;;;5077494;28;20072;-48
2021/07/03 11:37:47;;;;;;;14.48;7.38;;;28.90;35.50;;;;;;5095194;28;20024;-52
2021/07/03 11:40:18;;;;;;;9.23;6.68;;;29.40;34.60;;;;;;5095595;28;20081;-53
2021/07/03 11:42:49;;;;;;;6.85;5.80;;;28.80;35.10;;;;;;5095712;28;20032;-48
2021/07/03 11:45:24;;;;;;;8.50;6.50;;;29.20;35.10;;;;;;5095608;28;20017;-48
2021/07/03 11:47:53;;;;;;;8.40;6.60;;;28.20;36.40;;;;;;5076954;28;20052;-50
2021/07/03 11:50:22;;;;;;;7.07;6.38;;;28.70;36.00;;;;;;5095034;28;20498;-51
2021/07/03 11:52:53;;;;;;;7.80;6.80;;;29.00;35.40;;;;;;5095085;28;20020;-49
2021/07/03 11:55:25;;;;;;;6.75;5.80;;;29.20;34.80;;;;;;5100906;28;20075;-50
2021/07/03 11:57:51;;;;;;;10.20;5.47;;;29.20;34.80;;;;;;5094500;28;20029;-49
2021/07/03 12:00:18;;;;;;;8.10;6.18;;;30.10;33.90;;;;;;5095258;28;20475;-49
2021/07/03 12:02:44;;;;;;;7.20;5.80;;;30.30;33.10;;;;;;5094745;28;20356;-49
2021/07/03 12:05:12;;;;;;;8.93;6.10;;;30.30;33.10;;;;;;5094824;28;20016;-48
2021/07/03 12:07:38;;;;;;;6.63;5.95;;;29.80;35.00;;;;;;5095404;28;20027;-48
2021/07/03 12:10:07;;;;;;;10.13;7.10;;;29.70;34.80;;;;;;5077069;28;20379;-49
2021/07/03 12:12:33;;;;;;;6.32;5.72;;;28.90;36.10;;;;;;5076728;28;20036;-49
2021/07/03 12:15:04;;;;;;;6.10;5.50;;;29.90;34.70;;;;;;5095087;28;20074;-51
2021/07/03 12:17:30;;;;;;;8.52;7.18;;;30.50;33.60;;;;;;5095036;28;20027;-52
2021/07/03 12:20:11;;;;;;;7.63;5.82;;;29.70;34.50;;;;;;5094441;28;20371;-48
2021/07/03 12:22:38;;;;;;;8.40;5.95;;;29.00;35.90;;;;;;5094635;28;20055;-52
2021/07/03 12:25:11;;;;;;;10.13;6.13;;;29.00;35.60;;;;;;5094870;28;20027;-50
2021/07/03 12:27:37;;;;;;;6.80;6.10;;;29.90;34.80;;;;;;5076403;28;20024;-51
2021/07/03 12:30:08;;;;;;;9.45;6.55;;;29.80;34.70;;;;;;5094915;28;20024;-49
2021/07/03 12:32:34;;;;;;;6.75;5.00;;;31.30;32.20;;;;;;5076398;28;20039;-48